Terminal Aerodrome Forecast
Issued by NWS

Home | Current Version | Previous Version | Text Only | Print | Product List | Glossary On
Versions: 1 2 3 4 5 6 7 8 9 10 11 12 13 14 15
000
FTUS45 KGGW 222320
TAFOLF
TAF
KOLF 222320Z 2300/2324 31025G35KT P6SM VCSH SCT030 BKN060
      TEMPO 2303/2305 OVC030
     FM230500 31013KT P6SM BKN040
     FM230700 30011KT P6SM SCT050
     FM231200 29010KT P6SM FEW170
     FM231800 31021G29KT P6SM FEW080=

USA.gov is the U.S. government's official web portal to all federal, state and local government web resources and services.